Time;durP1;ratioP1;P1;durP2;ratioP2;P2;SDS_P1;SDS_P2;PMS_P1;PMS_P2;Temp;Humidity;BMP_temperature;BMP_pressure;BME280_temperature;BME280_humidity;BME280_pressure;Samples;Min_cycle;Max_cycle;Signal;HPM_P1;HPM_P2
2022/11/07 00:03:03;;;;;;;5.50;4.00;;;;;;;20.22;53.85;96642.81;10494352;28;20059;-44
2022/11/07 00:08:30;;;;;;;4.82;3.70;;;;;;;20.20;53.84;96659.38;10494066;28;20045;-45
2022/11/07 00:13:50;;;;;;;4.63;4.10;;;;;;;20.18;53.92;96671.66;10508303;28;20526;-44
2022/11/07 00:19:10;;;;;;;4.65;3.65;;;;;;;20.17;53.97;96670.88;10494130;28;20052;-44
2022/11/07 00:24:29;;;;;;;4.38;3.70;;;;;;;20.16;53.96;96669.28;10476430;28;20075;-48
2022/11/07 00:29:49;;;;;;;4.75;3.78;;;;;;;20.15;53.98;96673.91;10502091;28;20048;-45
2022/11/07 00:35:08;;;;;;;4.50;3.75;;;;;;;20.12;53.97;96671.84;10505132;28;20056;-45
2022/11/07 00:40:27;;;;;;;4.85;3.90;;;;;;;20.12;54.03;96676.47;10501894;28;20060;-44
2022/11/07 00:45:47;;;;;;;5.78;3.70;;;;;;;20.11;53.89;96677.56;10501153;28;20491;-46
2022/11/07 00:51:10;;;;;;;4.97;3.95;;;;;;;20.09;53.91;96682.53;10503078;28;20546;-45
2022/11/07 00:56:30;;;;;;;4.93;3.70;;;;;;;20.07;54.01;96680.16;10501292;28;20048;-47
2022/11/07 01:01:50;;;;;;;4.05;3.45;;;;;;;20.07;53.98;96693.69;10500782;28;20052;-47
2022/11/07 01:07:09;;;;;;;4.65;3.80;;;;;;;20.05;54.04;96690.53;10500731;28;20052;-44
2022/11/07 01:12:29;;;;;;;3.90;3.38;;;;;;;20.04;54.02;96688.16;10500318;28;20055;-47
2022/11/07 01:17:48;;;;;;;5.93;3.88;;;;;;;20.03;54.12;96698.19;10488923;28;20049;-49
2022/11/07 01:23:08;;;;;;;3.65;3.20;;;;;;;20.02;53.96;96703.91;10500318;28;20048;-45
2022/11/07 01:28:27;;;;;;;5.00;3.83;;;;;;;20.01;54.05;96696.91;10510751;28;20036;-44
2022/11/07 01:33:47;;;;;;;3.80;3.28;;;;;;;20.00;54.10;96687.22;10506979;28;20416;-45
2022/11/07 01:39:06;;;;;;;4.07;3.38;;;;;;;19.99;54.06;96691.81;10498878;28;20056;-45
2022/11/07 01:44:25;;;;;;;4.07;3.53;;;;;;;19.98;54.09;96684.06;10499178;28;20075;-46
2022/11/07 01:49:45;;;;;;;4.03;3.13;;;;;;;19.97;54.06;96682.47;10499340;28;20060;-47
2022/11/07 01:55:08;;;;;;;3.60;3.30;;;;;;;19.93;54.12;96672.31;10477876;28;20056;-44
2022/11/07 02:00:28;;;;;;;3.17;2.88;;;;;;;19.93;54.10;96676.91;10512533;28;20048;-46
2022/11/07 02:06:01;;;;;;;4.07;3.05;;;;;;;19.92;54.09;96675.34;10498890;28;20408;-45
2022/11/07 02:11:21;;;;;;;4.13;3.38;;;;;;;19.91;54.16;96671.06;10488890;28;20037;-46
2022/11/07 02:16:41;;;;;;;4.05;2.90;;;;;;;19.89;54.11;96676.78;10511797;28;20049;-46
2022/11/07 02:22:21;;;;;;;3.30;3.00;;;;;;;19.88;54.19;96672.50;10497487;28;20052;-44
2022/11/07 02:27:41;;;;;;;3.40;2.97;;;;;;;19.87;54.11;96667.44;10465637;28;20044;-44
2022/11/07 02:33:01;;;;;;;3.17;2.88;;;;;;;19.85;54.29;96675.84;10507216;28;20045;-45
2022/11/07 02:38:24;;;;;;;3.13;2.80;;;;;;;19.85;54.12;96685.88;10496972;28;20530;-45
2022/11/07 02:43:48;;;;;;;4.68;2.97;;;;;;;19.83;54.14;96678.09;10503374;28;20044;-45
2022/11/07 02:49:08;;;;;;;4.22;3.08;;;;;;;19.82;54.26;96679.22;10496057;28;20039;-44
2022/11/07 02:54:27;;;;;;;2.92;2.60;;;;;;;19.82;54.17;96686.56;10496726;28;20049;-44
2022/11/07 02:59:47;;;;;;;2.90;2.70;;;;;;;19.81;54.10;96684.97;10484678;28;20048;-44
2022/11/07 03:05:07;;;;;;;3.00;2.58;;;;;;;19.79;54.20;96682.59;10496537;28;20055;-44
2022/11/07 03:10:27;;;;;;;2.63;2.42;;;;;;;19.77;54.25;96692.94;10496102;28;20056;-45
2022/11/07 03:15:46;;;;;;;3.35;3.05;;;;;;;19.75;54.41;96701.34;10495391;28;20063;-48
2022/11/07 03:21:06;;;;;;;3.40;2.70;;;;;;;19.76;54.20;96694.06;10495730;28;20051;-49
2022/11/07 03:26:25;;;;;;;2.92;2.67;;;;;;;19.74;54.27;96701.72;10481973;28;20423;-44
2022/11/07 03:31:44;;;;;;;3.40;2.78;;;;;;;19.74;54.33;96715.22;10505583;28;20041;-45
2022/11/07 03:37:04;;;;;;;3.22;2.60;;;;;;;19.72;54.26;96715.53;10495806;28;20044;-46
2022/11/07 03:42:24;;;;;;;2.70;2.50;;;;;;;19.70;54.29;96715.06;10495750;28;20063;-49
2022/11/07 03:47:44;;;;;;;2.80;2.50;;;;;;;19.69;54.36;96723.47;10495233;28;20052;-46
2022/11/07 03:53:04;;;;;;;2.60;2.40;;;;;;;19.68;54.37;96721.88;10495447;28;20056;-47
2022/11/07 03:58:23;;;;;;;2.58;2.38;;;;;;;19.67;54.38;96715.69;10485918;28;20047;-45
2022/11/07 04:03:43;;;;;;;2.47;2.28;;;;;;;19.66;54.32;96716.00;10502682;28;20056;-46
2022/11/07 04:09:02;;;;;;;2.80;2.60;;;;;;;19.65;54.24;96717.16;10516661;28;20431;-47
2022/11/07 04:20:00;;;;;;;2.50;2.15;;;;;;;19.63;54.33;96713.97;10502851;28;20052;-44
2022/11/07 04:27:41;;;;;;;2.38;2.17;;;;;;;19.62;54.36;96715.09;10493788;28;20054;-45
2022/11/07 04:30:59;;;;;;;2.42;2.22;;;;;;;19.60;54.36;96703.81;10493373;28;20052;-49
2022/11/07 04:36:18;;;;;;;2.35;2.15;;;;;;;19.59;54.31;96704.94;10502565;28;20102;-47
2022/11/07 04:41:38;;;;;;;2.60;2.40;;;;;;;19.58;54.31;96703.34;10499972;28;20094;-45
2022/11/07 04:46:57;;;;;;;2.40;2.08;;;;;;;19.57;54.32;96691.75;10483362;28;20056;-45
2022/11/07 04:52:16;;;;;;;2.45;2.22;;;;;;;19.55;54.27;96694.78;10495511;28;20056;-45
2022/11/07 04:57:36;;;;;;;2.70;2.20;;;;;;;19.54;54.31;96709.41;10500429;28;20530;-45
2022/11/07 05:02:55;;;;;;;3.33;2.58;;;;;;;19.55;54.31;96715.59;10501815;28;20400;-45
2022/11/07 05:08:14;;;;;;;2.60;2.40;;;;;;;19.53;54.77;96724.03;10497826;28;20044;-44
2022/11/07 05:13:33;;;;;;;2.85;2.58;;;;;;;19.54;54.26;96727.53;10497238;28;20040;-45
2022/11/07 05:18:53;;;;;;;2.17;1.98;;;;;;;19.53;54.39;96732.13;10500704;28;20056;-48
2022/11/07 05:24:13;;;;;;;2.60;2.40;;;;;;;19.53;54.23;96736.75;10500229;28;20255;-48
2022/11/07 05:29:32;;;;;;;2.75;2.25;;;;;;;19.51;54.37;96761.41;10492108;28;20044;-45
2022/11/07 05:34:52;;;;;;;2.35;2.08;;;;;;;19.51;54.42;96760.59;10499109;28;20061;-49
2022/11/07 05:40:11;;;;;;;2.60;2.40;;;;;;;19.52;54.52;96751.38;10496138;28;20516;-48
2022/11/07 05:45:32;;;;;;;2.40;2.20;;;;;;;19.52;54.46;96757.59;10493275;28;20538;-44
2022/11/07 05:50:51;;;;;;;2.20;2.00;;;;;;;19.53;54.88;96761.06;10510739;28;20396;-47
2022/11/07 05:56:11;;;;;;;3.67;3.20;;;;;;;19.50;52.27;96777.94;10506030;28;20044;-45
2022/11/07 06:01:30;;;;;;;4.47;2.47;;;;;;;19.43;52.06;96783.06;10497707;28;20052;-46
2022/11/07 06:06:49;;;;;;;5.70;2.90;;;;;;;19.46;53.43;96804.00;10502595;28;20055;-46
2022/11/07 06:12:09;;;;;;;6.10;3.15;;;;;;;19.49;53.77;96804.16;10481416;28;20416;-47
2022/11/07 06:17:28;;;;;;;9.50;3.55;;;;;;;19.51;53.79;96807.31;10497508;28;20048;-45
2022/11/07 06:22:48;;;;;;;7.93;3.67;;;;;;;19.52;53.65;96819.75;10487316;28;20102;-45
2022/11/07 06:28:10;;;;;;;12.02;3.67;;;;;;;19.53;53.81;96818.59;10485826;28;20496;-45
2022/11/07 06:33:30;;;;;;;8.93;3.67;;;;;;;19.55;53.88;96829.88;10504540;28;20091;-45
2022/11/07 06:38:51;;;;;;;9.68;3.30;;;;;;;19.55;53.84;96848.78;10497838;28;20090;-46
2022/11/07 06:44:11;;;;;;;8.20;3.75;;;;;;;19.59;54.08;96862.47;10484346;28;20056;-45
2022/11/07 06:49:30;;;;;;;7.45;3.80;;;;;;;19.59;54.15;96858.97;10489056;28;20056;-46
2022/11/07 06:54:50;;;;;;;7.78;3.40;;;;;;;19.60;54.10;96863.25;10496833;28;20086;-48
2022/11/07 07:00:11;;;;;;;7.55;3.47;;;;;;;19.62;54.10;96875.34;10500773;28;20045;-46
2022/11/07 07:05:32;;;;;;;6.88;3.50;;;;;;;19.64;54.27;96881.22;10495765;28;20052;-45
2022/11/07 07:10:52;;;;;;;5.90;2.97;;;;;;;19.65;54.25;96888.19;10495454;28;20534;-45
2022/11/07 07:16:11;;;;;;;5.70;3.35;;;;;;;19.66;54.37;96897.09;10472607;28;20484;-46
2022/11/07 07:21:32;;;;;;;5.38;3.03;;;;;;;19.67;54.23;96896.78;10496063;28;20049;-44
2022/11/07 07:26:52;;;;;;;8.95;3.53;;;;;;;19.69;54.33;96902.66;10494813;28;20057;-48
2022/11/07 07:32:11;;;;;;;5.68;3.20;;;;;;;19.69;54.28;96896.47;10484694;28;20114;-43
2022/11/07 07:37:31;;;;;;;6.65;3.38;;;;;;;19.71;54.15;96902.31;10494579;28;20057;-45
2022/11/07 07:42:51;;;;;;;6.60;3.63;;;;;;;19.72;54.25;96915.56;10494801;28;20141;-46
2022/11/07 07:48:10;;;;;;;7.82;3.10;;;;;;;19.74;54.25;96917.94;10501602;28;20159;-44
2022/11/07 07:53:29;;;;;;;6.00;3.00;;;;;;;19.73;54.25;96914.44;10499501;28;20036;-44
2022/11/07 07:58:48;;;;;;;7.80;3.53;;;;;;;19.75;54.30;96919.50;10495042;28;20049;-46
2022/11/07 08:04:08;;;;;;;7.93;3.17;;;;;;;19.77;54.26;96919.19;10497832;28;20037;-44
2022/11/07 08:09:30;;;;;;;5.85;3.30;;;;;;;19.78;54.28;96924.28;10495028;28;20048;-45
2022/11/07 08:14:49;;;;;;;6.72;3.10;;;;;;;19.80;54.10;96918.53;10494529;28;20052;-45
2022/11/07 08:20:10;;;;;;;5.13;2.88;;;;;;;19.81;53.52;96915.53;10494489;28;20052;-45
2022/11/07 08:25:30;;;;;;;6.05;2.80;;;;;;;19.81;53.84;96920.94;10494582;28;20407;-44
2022/11/07 08:31:08;;;;;;;4.22;2.65;;;;;;;19.84;53.63;96927.63;10508135;28;20051;-45
2022/11/07 08:36:28;;;;;;;5.90;3.00;;;;;;;19.84;53.71;96925.69;10481471;28;20114;-43
2022/11/07 08:41:47;;;;;;;5.80;3.20;;;;;;;19.87;53.77;96926.97;10494448;28;20059;-46
2022/11/07 08:47:07;;;;;;;12.13;4.75;;;;;;;19.87;53.51;96926.97;10498689;28;20049;-44
2022/11/07 08:52:27;;;;;;;9.45;4.22;;;;;;;19.90;53.58;96937.94;10500894;28;20064;-45
2022/11/07 08:57:46;;;;;;;14.18;8.27;;;;;;;19.92;52.56;96938.41;10500483;28;20053;-45
2022/11/07 09:03:07;;;;;;;24.30;16.42;;;;;;;19.94;51.30;96933.47;10501076;28;20052;-44
2022/11/07 09:08:27;;;;;;;30.63;18.90;;;;;;;19.97;51.48;96940.13;10501397;28;20401;-45
2022/11/07 09:13:46;;;;;;;18.92;14.23;;;;;;;20.01;52.24;96938.34;10514126;28;20041;-44
2022/11/07 09:19:06;;;;;;;17.13;11.65;;;;;;;20.03;51.69;96946.16;10499862;28;20056;-44
2022/11/07 09:24:25;;;;;;;15.13;10.18;;;;;;;20.07;52.32;96938.97;10500160;28;20053;-45
2022/11/07 09:29:45;;;;;;;13.13;9.32;;;;;;;20.10;52.60;96941.03;10499454;28;20052;-46
2022/11/07 09:35:05;;;;;;;11.57;8.05;;;;;;;20.11;52.41;96939.91;10488112;28;20059;-46
2022/11/07 09:40:42;;;;;;;8.55;7.10;;;;;;;20.13;52.48;96940.38;10499583;28;20057;-47
2022/11/07 09:46:08;;;;;;;8.13;6.18;;;;;;;20.13;52.22;96943.09;10498359;28;20060;-47
2022/11/07 09:51:34;;;;;;;8.10;5.90;;;;;;;20.15;51.97;96943.59;10499150;28;20099;-49
2022/11/07 09:56:55;;;;;;;6.72;4.90;;;;;;;20.15;51.72;96940.88;10498027;28;20056;-49
2022/11/07 10:02:16;;;;;;;6.53;4.57;;;;;;;20.19;51.53;96941.81;10512146;28;20041;-50
2022/11/07 10:07:44;;;;;;;6.47;3.80;;;;;;;20.20;51.28;96945.31;10478461;28;20098;-46
2022/11/07 10:13:29;;;;;;;5.72;4.05;;;;;;;20.18;51.17;96936.72;10497184;28;20056;-46
2022/11/07 10:19:23;;;;;;;4.40;3.17;;;;;;;20.18;51.06;96945.63;10488133;28;20041;-46
2022/11/07 10:24:54;;;;;;;3.35;2.92;;;;;;;20.19;50.96;96946.41;10491434;28;20412;-49
2022/11/07 10:30:17;;;;;;;3.22;2.92;;;;;;;20.17;50.83;96941.34;10486989;28;20048;-45
2022/11/07 10:35:40;;;;;;;4.00;2.88;;;;;;;20.19;50.91;96938.28;10499837;28;20053;-49
2022/11/07 10:41:00;;;;;;;3.10;2.80;;;;;;;20.18;50.74;96936.72;10510283;28;20044;-47
2022/11/07 10:46:41;;;;;;;3.17;2.38;;;;;;;20.17;50.38;96930.53;10499824;28;20403;-44
2022/11/07 10:52:07;;;;;;;5.72;2.35;;;;;;;20.19;50.43;96930.19;10501405;28;20048;-47
2022/11/07 10:57:28;;;;;;;5.10;3.00;;;;;;;20.21;50.67;96925.22;10496759;28;20396;-46
2022/11/07 11:02:48;;;;;;;3.70;2.72;;;;;;;20.19;50.48;96920.19;10496833;28;20058;-46
2022/11/07 11:08:19;;;;;;;4.22;2.55;;;;;;;20.19;50.19;96917.47;10476022;28;20055;-45
2022/11/07 11:13:39;;;;;;;4.22;2.40;;;;;;;20.21;50.16;96923.34;10494897;28;20060;-46
2022/11/07 11:19:00;;;;;;;4.70;2.28;;;;;;;20.21;49.99;96909.81;10496245;28;20055;-45
2022/11/07 11:24:22;;;;;;;5.10;2.50;;;;;;;20.22;49.98;96908.69;10495517;28;20060;-48
2022/11/07 11:30:06;;;;;;;4.07;2.40;;;;;;;20.23;49.38;96906.75;10495629;28;20114;-49
2022/11/07 11:35:40;;;;;;;4.25;2.30;;;;;;;20.23;49.41;96902.16;10490455;28;20072;-48
2022/11/07 11:41:06;;;;;;;3.50;2.30;;;;;;;20.24;49.32;96895.63;10508936;28;20098;-47
2022/11/07 11:46:48;;;;;;;4.78;2.70;;;;;;;20.25;48.88;96910.75;10484834;28;20052;-48
2022/11/07 11:52:24;;;;;;;8.10;2.70;;;;;;;20.26;49.02;96906.91;10479265;28;20044;-45
2022/11/07 11:58:09;;;;;;;5.30;2.50;;;;;;;20.27;48.66;96905.03;10483177;28;20090;-49
2022/11/07 12:03:46;;;;;;;5.30;2.60;;;;;;;20.26;48.61;96906.91;10479111;28;20060;-46
2022/11/07 12:09:09;;;;;;;6.78;2.80;;;;;;;20.27;48.60;96913.13;10490003;28;20039;-47
2022/11/07 12:14:31;;;;;;;6.75;2.88;;;;;;;20.28;48.63;96906.59;10480104;28;20060;-46
2022/11/07 12:20:05;;;;;;;7.93;3.17;;;;;;;20.30;48.55;96893.53;10496189;28;20055;-47
2022/11/07 12:25:31;;;;;;;9.45;3.25;;;;;;;20.30;48.19;96890.81;10496889;28;20052;-45
2022/11/07 12:31:05;;;;;;;7.25;2.72;;;;;;;20.30;48.06;96893.53;10483679;28;20594;-46
2022/11/07 12:36:36;;;;;;;6.22;2.67;;;;;;;20.30;48.03;96880.78;10501505;28;20496;-44
2022/11/07 12:42:05;;;;;;;6.78;2.90;;;;;;;20.31;47.82;96890.50;10501782;28;20106;-47
2022/11/07 12:47:34;;;;;;;6.57;2.50;;;;;;;20.32;47.82;96888.59;10500203;28;20059;-46
2022/11/07 12:53:15;;;;;;;4.75;2.13;;;;;;;20.32;47.56;96889.38;10474720;28;20055;-46
2022/11/07 12:58:36;;;;;;;4.75;2.50;;;;;;;20.32;47.49;96894.00;10501085;28;20059;-47
2022/11/07 13:04:12;;;;;;;4.03;2.10;;;;;;;20.33;47.30;96895.59;10484710;28;20051;-45
2022/11/07 13:09:45;;;;;;;4.88;1.90;;;;;;;20.34;47.54;96897.16;10480577;28;20048;-46
2022/11/07 13:15:08;;;;;;;3.83;1.73;;;;;;;20.33;47.58;96890.97;10500800;28;20056;-46
2022/11/07 13:20:29;;;;;;;4.70;1.80;;;;;;;20.37;47.55;96901.16;10462038;28;20385;-47
2022/11/07 13:25:57;;;;;;;4.72;1.83;;;;;;;20.36;47.49;96903.03;10506904;28;20048;-47
2022/11/07 13:31:37;;;;;;;3.80;1.60;;;;;;;20.37;47.52;96899.22;10500141;28;20052;-46
2022/11/07 13:37:00;;;;;;;4.00;2.08;;;;;;;20.39;47.26;96905.09;10491276;28;20125;-45
2022/11/07 13:42:23;;;;;;;5.32;2.00;;;;;;;20.38;47.10;96898.09;10499629;28;20106;-46
2022/11/07 13:47:43;;;;;;;3.38;1.92;;;;;;;20.39;46.69;96894.28;10512069;28;20044;-47
2022/11/07 13:53:05;;;;;;;3.45;1.60;;;;;;;20.39;46.56;96897.00;10503019;28;20396;-46
2022/11/07 13:58:25;;;;;;;2.97;1.48;;;;;;;20.37;46.50;96904.66;10512589;28;20051;-49
2022/11/07 14:03:45;;;;;;;2.97;1.65;;;;;;;20.39;46.28;96918.63;10512340;28;20040;-45
2022/11/07 14:09:04;;;;;;;2.28;1.55;;;;;;;20.39;46.78;96915.16;10500827;28;20070;-45
2022/11/07 14:14:25;;;;;;;1.85;1.40;;;;;;;20.39;47.21;96921.34;10497832;28;20087;-48
2022/11/07 14:19:45;;;;;;;3.70;1.60;;;;;;;20.40;46.95;96919.44;10478968;28;20049;-47
2022/11/07 14:25:20;;;;;;;3.45;1.70;;;;;;;20.41;46.60;96912.91;10503835;28;20059;-46
2022/11/07 14:30:40;;;;;;;2.00;1.33;;;;;;;20.42;46.78;96914.47;10497575;28;20048;-49
2022/11/07 14:36:05;;;;;;;2.38;1.17;;;;;;;20.42;46.60;96900.94;10498590;28;20057;-49
2022/11/07 14:41:24;;;;;;;3.35;1.20;;;;;;;20.42;46.72;96899.03;10485118;28;20048;-45
2022/11/07 14:46:44;;;;;;;1.52;1.20;;;;;;;20.43;46.54;96903.34;10497064;28;20089;-47
2022/11/07 14:52:05;;;;;;;1.50;1.30;;;;;;;20.43;46.58;96911.44;10492008;28;20369;-45
2022/11/07 14:57:24;;;;;;;2.38;1.20;;;;;;;20.45;46.67;96903.78;10487964;28;20518;-46
2022/11/07 15:02:47;;;;;;;1.77;1.30;;;;;;;20.47;46.40;96908.88;10496647;28;20399;-44
2022/11/07 15:08:27;;;;;;;2.25;1.25;;;;;;;20.47;46.19;96908.88;10480356;28;20551;-47
2022/11/07 15:13:47;;;;;;;2.15;1.30;;;;;;;20.49;46.47;96901.22;10496807;28;20045;-46
2022/11/07 15:19:07;;;;;;;1.83;1.45;;;;;;;20.50;46.41;96910.94;10495750;28;20041;-47
2022/11/07 15:24:45;;;;;;;2.13;1.17;;;;;;;20.51;46.03;96902.47;10494855;28;20063;-45
2022/11/07 15:30:21;;;;;;;2.45;1.40;;;;;;;20.54;46.04;96899.13;10509601;28;20040;-48
2022/11/07 15:35:41;;;;;;;2.55;1.48;;;;;;;20.55;46.05;96895.28;10488449;28;20060;-48
2022/11/07 15:41:01;;;;;;;1.80;1.20;;;;;;;20.54;44.14;96895.63;10477111;28;20052;-45
2022/11/07 15:46:27;;;;;;;2.40;1.25;;;;;;;20.49;45.30;96912.06;10500664;28;20047;-46
2022/11/07 15:51:47;;;;;;;2.78;1.40;;;;;;;20.47;45.98;96912.38;10494411;28;20507;-46
2022/11/07 15:57:07;;;;;;;2.53;1.60;;;;;;;20.47;46.64;96919.72;10509351;28;20056;-45
2022/11/07 16:02:26;;;;;;;3.17;1.60;;;;;;;20.47;47.05;96922.41;10502842;28;20523;-44
2022/11/07 16:07:46;;;;;;;3.47;1.50;;;;;;;20.48;47.36;96932.09;10503404;28;20055;-45
2022/11/07 16:13:07;;;;;;;3.45;1.60;;;;;;;20.48;47.90;96924.00;10513366;28;20105;-45
2022/11/07 16:18:32;;;;;;;3.17;1.40;;;;;;;20.50;48.23;96910.94;10493175;28;20053;-44
2022/11/07 16:23:52;;;;;;;2.88;1.60;;;;;;;20.49;48.50;96909.34;10510617;28;20040;-44
2022/11/07 16:29:12;;;;;;;5.40;1.60;;;;;;;20.51;48.62;96909.81;10515932;28;20447;-44
2022/11/07 16:34:32;;;;;;;1.95;1.30;;;;;;;20.51;48.89;96912.53;10486735;28;20048;-46
2022/11/07 16:39:51;;;;;;;3.85;1.50;;;;;;;20.51;49.01;96917.94;10491027;28;20056;-44
2022/11/07 16:45:15;;;;;;;2.72;1.23;;;;;;;20.52;49.13;96911.38;10498340;28;20052;-45
2022/11/07 16:50:34;;;;;;;3.03;1.40;;;;;;;20.52;49.35;96908.69;10481279;28;20049;-44
2022/11/07 16:55:54;;;;;;;3.20;1.40;;;;;;;20.53;49.51;96921.88;10501275;28;20064;-45
2022/11/07 17:01:14;;;;;;;2.70;1.30;;;;;;;20.53;49.71;96913.00;10496897;28;20105;-44
2022/11/07 17:06:34;;;;;;;2.00;1.40;;;;;;;20.54;49.85;96923.50;10496748;28;20428;-45
2022/11/07 17:11:53;;;;;;;2.03;1.20;;;;;;;20.54;49.91;96923.50;10501859;28;20040;-44
2022/11/07 17:17:14;;;;;;;3.10;1.33;;;;;;;20.55;50.14;96922.34;10494971;28;20064;-44
2022/11/07 17:22:34;;;;;;;1.58;1.33;;;;;;;20.57;50.25;96935.56;10513469;28;20044;-43
2022/11/07 17:27:53;;;;;;;1.73;1.00;;;;;;;20.59;50.55;96938.78;10499448;28;20506;-46
2022/11/07 17:33:13;;;;;;;3.40;1.35;;;;;;;20.60;50.91;96947.69;10479648;28;20069;-46
2022/11/07 17:38:32;;;;;;;1.73;1.30;;;;;;;20.61;51.07;96952.78;10472528;28;20049;-55
2022/11/07 17:43:52;;;;;;;3.63;1.30;;;;;;;20.62;51.17;96951.66;10497211;28;20408;-55
2022/11/07 17:49:13;;;;;;;4.50;1.50;;;;;;;20.63;51.34;96947.03;10512223;28;20048;-57
2022/11/07 17:54:33;;;;;;;2.47;1.45;;;;;;;20.64;51.43;96959.44;10496312;28;20060;-54
2022/11/07 17:59:52;;;;;;;2.20;1.50;;;;;;;20.64;51.42;96956.72;10509265;28;20044;-51
2022/11/07 18:05:14;;;;;;;2.15;1.15;;;;;;;20.65;51.55;96951.00;10502171;28;20037;-53
2022/11/07 18:10:33;;;;;;;2.40;1.30;;;;;;;20.65;51.78;96961.03;10498511;28;20406;-55
2022/11/07 18:15:53;;;;;;;4.78;1.60;;;;;;;20.66;51.72;96951.78;10479075;28;20102;-56
2022/11/07 18:21:13;;;;;;;3.35;1.50;;;;;;;20.67;51.75;96958.78;10495981;28;20102;-56
2022/11/07 18:26:33;;;;;;;2.53;1.35;;;;;;;20.67;51.72;96951.47;10498543;28;20462;-56
2022/11/07 18:31:53;;;;;;;2.60;1.42;;;;;;;20.68;51.73;96952.25;10510097;28;20052;-47
2022/11/07 18:37:13;;;;;;;4.88;1.45;;;;;;;20.69;51.88;96957.34;10497100;28;20064;-46
2022/11/07 18:42:33;;;;;;;1.40;1.30;;;;;;;20.69;51.76;96962.75;10497276;28;20051;-47
2022/11/07 18:47:53;;;;;;;2.92;1.23;;;;;;;20.69;51.79;96968.16;10480627;28;20048;-46
2022/11/07 18:53:12;;;;;;;3.50;1.45;;;;;;;20.69;51.85;96954.63;10510660;28;20395;-48
2022/11/07 18:58:33;;;;;;;1.67;1.05;;;;;;;20.68;51.88;96955.75;10496828;28;20056;-45
2022/11/07 19:03:54;;;;;;;2.05;1.23;;;;;;;20.69;51.83;96951.13;10493810;28;20424;-46
2022/11/07 19:09:14;;;;;;;1.98;1.10;;;;;;;20.69;52.00;96951.91;10490274;28;20048;-49
2022/11/07 19:14:33;;;;;;;2.45;1.23;;;;;;;20.69;52.03;96956.53;10495491;28;20060;-48
2022/11/07 19:19:53;;;;;;;3.40;1.20;;;;;;;20.68;52.02;96955.75;10495872;28;20053;-47
2022/11/07 19:25:17;;;;;;;2.17;1.50;;;;;;;20.69;52.25;96962.75;10509125;28;20051;-47
2022/11/07 19:30:38;;;;;;;2.45;1.48;;;;;;;20.69;52.24;96961.97;10494755;28;20063;-49
2022/11/07 19:36:00;;;;;;;3.97;1.20;;;;;;;20.69;52.45;96956.53;10497064;28;20049;-49
2022/11/07 19:41:20;;;;;;;2.03;1.40;;;;;;;20.70;52.66;96967.06;10474276;28;20052;-50
2022/11/07 19:46:39;;;;;;;2.20;1.38;;;;;;;20.72;52.01;96977.56;10493822;28;20044;-51
2022/11/07 19:51:58;;;;;;;3.60;1.75;;;;;;;20.76;50.49;96980.38;10499138;28;20067;-49
2022/11/07 19:57:18;;;;;;;4.03;2.25;;;;;;;20.78;49.72;96992.50;10494866;28;20048;-52
2022/11/07 20:02:37;;;;;;;3.47;2.60;;;;;;;20.81;48.75;96996.44;10497730;28;20049;-47
2022/11/07 20:07:57;;;;;;;5.25;2.90;;;;;;;20.83;48.31;96999.63;10494938;28;20110;-47
2022/11/07 20:13:16;;;;;;;5.00;3.17;;;;;;;20.84;47.75;97001.22;10484384;28;20052;-46
2022/11/07 20:18:36;;;;;;;5.15;3.03;;;;;;;20.85;47.67;97003.59;10494863;28;20059;-48
2022/11/07 20:23:58;;;;;;;5.22;3.95;;;;;;;20.65;45.46;96996.22;10493792;28;20052;-48
2022/11/07 20:29:18;;;;;;;16.85;4.20;;;;;;;20.69;46.50;97005.28;10492377;28;20427;-48
2022/11/07 20:34:37;;;;;;;5.47;3.92;;;;;;;20.72;47.40;97000.00;10494169;28;20061;-45
2022/11/07 20:39:56;;;;;;;4.72;4.20;;;;;;;20.73;47.44;96992.66;10494265;28;20048;-44
2022/11/07 20:45:15;;;;;;;6.63;3.92;;;;;;;20.74;47.74;96999.69;10494880;28;20076;-51
2022/11/07 20:50:36;;;;;;;4.75;4.00;;;;;;;20.76;48.03;97004.75;10501084;28;20526;-46
2022/11/07 20:55:55;;;;;;;6.25;4.15;;;;;;;20.74;48.25;96995.06;10501308;28;20454;-47
2022/11/07 21:01:19;;;;;;;4.68;3.75;;;;;;;20.76;48.46;96993.91;10492873;28;20052;-48
2022/11/07 21:06:38;;;;;;;6.68;3.80;;;;;;;20.78;48.74;96999.81;10495992;28;20044;-49
2022/11/07 21:11:58;;;;;;;4.57;3.60;;;;;;;20.77;48.71;97006.34;10494688;28;20056;-48
2022/11/07 21:17:17;;;;;;;4.47;3.92;;;;;;;20.77;48.87;97000.94;10511645;28;20049;-48
2022/11/07 21:22:37;;;;;;;6.90;3.72;;;;;;;20.78;49.10;97006.03;10496907;28;20535;-47
2022/11/07 21:27:56;;;;;;;4.47;3.45;;;;;;;20.79;49.22;97004.13;10513830;28;20047;-48
2022/11/07 21:33:15;;;;;;;4.50;3.17;;;;;;;20.79;49.29;97004.13;10485833;28;20061;-45
2022/11/07 21:38:36;;;;;;;4.78;3.47;;;;;;;20.78;49.37;97011.44;10513089;28;20407;-45
2022/11/07 21:43:56;;;;;;;5.15;3.20;;;;;;;20.79;49.52;97001.41;10509522;28;20051;-44
2022/11/07 21:49:16;;;;;;;5.07;3.30;;;;;;;20.77;49.60;97001.72;10540997;28;20174;-44
2022/11/07 21:54:36;;;;;;;3.75;3.30;;;;;;;20.77;49.78;96998.22;10520140;28;20064;-44
2022/11/07 21:59:55;;;;;;;3.88;3.35;;;;;;;20.76;49.75;97002.84;10535609;28;20044;-43
2022/11/07 22:05:15;;;;;;;3.90;3.60;;;;;;;20.75;49.82;97006.66;10528069;28;20060;-45
2022/11/07 22:10:35;;;;;;;4.82;3.30;;;;;;;20.76;49.86;97004.75;10502884;28;20045;-45
2022/11/07 22:16:21;;;;;;;3.88;3.10;;;;;;;20.74;49.87;97007.81;10511309;28;20048;-49
2022/11/07 22:21:41;;;;;;;3.28;2.55;;;;;;;20.74;49.89;97005.09;10533653;28;20051;-45
2022/11/07 22:27:00;;;;;;;4.00;3.33;;;;;;;20.73;50.00;97007.00;10526937;28;20500;-44
2022/11/07 22:32:20;;;;;;;3.90;3.08;;;;;;;20.73;50.01;96998.09;10528021;28;20048;-45
2022/11/07 22:37:40;;;;;;;3.85;3.20;;;;;;;20.70;49.95;97013.06;10531756;28;20078;-45
2022/11/07 22:42:59;;;;;;;3.58;2.85;;;;;;;20.70;50.23;96990.63;10516811;28;20411;-44
2022/11/07 22:48:18;;;;;;;3.30;3.00;;;;;;;20.70;50.18;96996.06;10496969;28;20052;-45
2022/11/07 22:53:38;;;;;;;3.33;3.03;;;;;;;20.69;50.32;96997.94;10508577;28;20060;-45
2022/11/07 22:58:58;;;;;;;3.35;2.85;;;;;;;20.67;50.32;96992.06;10535821;28;20434;-44
2022/11/07 23:04:18;;;;;;;2.88;2.53;;;;;;;20.68;50.43;96993.66;10520655;28;20199;-46
2022/11/07 23:09:38;;;;;;;3.85;2.88;;;;;;;20.67;50.39;96992.06;10536324;28;20059;-43
2022/11/07 23:14:57;;;;;;;3.53;2.75;;;;;;;20.66;50.42;96995.91;10527730;28;20071;-44
2022/11/07 23:25:55;;;;;;;3.25;2.70;;;;;;;20.64;50.45;97000.84;10513112;28;20055;-47
2022/11/07 23:31:16;;;;;;;3.58;2.70;;;;;;;20.63;50.68;96988.41;10531242;28;20057;-44
2022/11/07 23:36:36;;;;;;;2.75;2.55;;;;;;;20.62;50.64;96984.16;10514318;28;20059;-43
2022/11/07 23:41:55;;;;;;;2.40;2.20;;;;;;;20.61;50.63;96977.13;10501860;28;20048;-44
2022/11/07 23:52:54;;;;;;;2.65;2.45;;;;;;;20.58;50.73;96977.78;10502913;28;20078;-45
